Time;durP1;ratioP1;P1;durP2;ratioP2;P2;SDS_P1;SDS_P2;PMS_P1;PMS_P2;Temp;Humidity;BMP_temperature;BMP_pressure;BME280_temperature;BME280_humidity;BME280_pressure;Samples;Min_cycle;Max_cycle;Signal;HPM_P1;HPM_P2
2023/08/23 00:00:08;;;;;;;;;4.00;2.33;;;;;24.39;52.50;101519.47;5099847;27;59168;-71
2023/08/23 00:02:33;;;;;;;;;3.25;2.75;;;;;24.44;52.76;101536.81;5099995;27;45238;-71
2023/08/23 00:04:59;;;;;;;;;2.00;2.00;;;;;24.42;52.82;101533.47;5100688;27;45396;-72
2023/08/23 00:07:25;;;;;;;;;2.25;2.00;;;;;24.41;52.79;101539.94;5100426;27;45638;-71
2023/08/23 00:09:50;;;;;;;;;1.75;1.75;;;;;24.40;52.50;101543.72;5100242;27;45429;-70
2023/08/23 00:12:16;;;;;;;;;1.75;1.75;;;;;24.39;52.74;101538.50;5099002;27;45263;-71
2023/08/23 00:14:42;;;;;;;;;2.00;2.00;;;;;24.31;52.48;101536.88;5100707;27;45265;-71
2023/08/23 00:17:07;;;;;;;;;2.75;2.00;;;;;24.15;52.51;101523.72;5099652;27;45848;-72
2023/08/23 00:19:33;;;;;;;;;2.00;2.00;;;;;23.96;52.39;101498.28;5115873;27;45379;-72
2023/08/23 00:21:58;;;;;;;;;2.25;2.25;;;;;23.96;52.55;101498.28;5100148;27;45475;-72
2023/08/23 00:24:23;;;;;;;;;1.00;1.00;;;;;24.06;52.55;101519.59;5100597;27;45400;-71
2023/08/23 00:26:49;;;;;;;;;2.00;2.00;;;;;23.80;52.99;101502.31;5099867;27;45541;-71
2023/08/23 00:29:14;;;;;;;;;2.00;2.00;;;;;23.54;52.59;101457.03;5099595;27;55542;-70
2023/08/23 00:31:39;;;;;;;;;2.00;2.00;;;;;23.89;52.77;101522.78;5099763;27;45381;-72
2023/08/23 00:34:05;;;;;;;;;1.00;1.00;;;;;23.88;52.67;101512.13;5098669;27;45403;-72
2023/08/23 00:36:30;;;;;;;;;2.00;2.00;;;;;23.60;52.59;101468.94;5099584;27;58231;-71
2023/08/23 00:38:55;;;;;;;;;5.00;2.25;;;;;23.83;52.78;101507.34;5099817;27;45314;-70
2023/08/23 00:41:22;;;;;;;;;1.25;1.25;;;;;23.89;52.95;101505.63;5115812;27;45412;-71
2023/08/23 00:43:47;;;;;;;;;2.00;2.00;;;;;23.92;52.41;101489.75;5100156;27;45527;-72
2023/08/23 00:46:14;;;;;;;;;2.50;2.00;;;;;23.88;52.74;101493.13;5099675;27;46505;-70
2023/08/23 00:48:40;;;;;;;;;3.25;1.25;;;;;23.89;52.40;101479.31;5099699;27;45358;-71
2023/08/23 00:51:06;;;;;;;;;1.50;1.50;;;;;23.60;52.89;101449.94;5099830;27;45253;-69
2023/08/23 00:53:32;;;;;;;;;2.00;2.00;;;;;23.78;52.67;101469.09;5100161;27;45464;-73
2023/08/23 00:55:59;;;;;;;;;4.00;3.00;;;;;23.77;52.51;101472.88;5115317;27;46899;-70
2023/08/23 00:58:25;;;;;;;;;3.00;2.00;;;;;23.66;52.35;101451.81;5098496;27;45423;-71
2023/08/23 01:00:50;;;;;;;;;3.50;3.00;;;;;23.72;52.72;101472.69;5099603;27;45418;-71
2023/08/23 01:03:15;;;;;;;;;1.00;1.00;;;;;23.74;52.88;101480.59;5099366;27;45521;-72
2023/08/23 01:06:16;;;;;;;;;1.00;1.00;;;;;23.68;52.33;101476.88;5099460;27;45980;-69
2023/08/23 01:09:22;;;;;;;;;4.75;2.00;;;;;23.73;52.52;101478.94;5092250;27;45260;-69
2023/08/23 01:12:03;;;;;;;;;4.33;4.00;;;;;23.65;52.39;101480.84;5099406;27;45545;-70
2023/08/23 01:14:43;;;;;;;;;1.00;1.00;;;;;23.55;52.40;101466.84;5098125;27;45299;-71
2023/08/23 01:17:10;;;;;;;;;3.67;2.00;;;;;23.62;52.34;101475.00;5097283;27;47322;-70
2023/08/23 01:19:44;;;;;;;;;3.00;1.00;;;;;23.62;52.25;101483.13;5099127;27;45518;-70
2023/08/23 01:22:13;;;;;;;;;1.67;1.67;;;;;23.64;52.50;101472.91;5099331;27;45281;-70
2023/08/23 01:24:39;;;;;;;;;2.00;2.00;;;;;23.61;52.26;101462.47;5099376;27;45247;-72
2023/08/23 01:27:05;;;;;;;;;1.33;1.33;;;;;23.57;52.91;101475.63;5099113;27;45655;-71
2023/08/23 01:29:30;;;;;;;;;2.50;2.00;;;;;23.52;53.01;101474.56;5098959;27;45452;-70
2023/08/23 01:32:06;;;;;;;;;2.75;2.00;;;;;23.51;52.99;101465.59;5097676;27;45476;-70
2023/08/23 01:34:37;;;;;;;;;2.00;2.00;;;;;23.45;53.29;101460.19;5099438;27;45484;-70
2023/08/23 01:37:05;;;;;;;;;4.00;1.25;;;;;23.49;53.15;101472.28;5098956;27;46781;-70
2023/08/23 01:39:32;;;;;;;;;3.00;2.00;;;;;23.46;52.64;101472.72;5098883;27;45288;-69
2023/08/23 01:41:58;;;;;;;;;2.25;1.25;;;;;23.56;52.56;101481.25;5099094;27;45401;-71
2023/08/23 01:44:24;;;;;;;;;3.67;3.00;;;;;23.46;53.16;101461.84;5098794;27;45570;-70
2023/08/23 01:46:49;;;;;;;;;3.00;2.00;;;;;23.56;52.80;101473.97;5098345;27;54298;-71
2023/08/23 01:49:14;;;;;;;;;2.00;2.00;;;;;23.46;53.25;101461.84;5098685;27;45440;-72
2023/08/23 01:51:40;;;;;;;;;2.00;2.00;;;;;23.55;53.27;101479.56;5098901;27;45326;-70
2023/08/23 01:54:05;;;;;;;;;1.00;1.00;;;;;23.38;52.95;101457.47;5099071;27;45321;-71
2023/08/23 01:56:30;;;;;;;;;2.75;2.75;;;;;23.30;53.43;101463.97;5098582;27;45391;-69
2023/08/23 01:58:55;;;;;;;;;1.00;1.00;;;;;23.33;53.87;101468.97;5098475;27;50074;-71
2023/08/23 02:01:21;;;;;;;;;4.25;4.25;;;;;23.17;53.97;101453.09;5098637;27;45305;-70
2023/08/23 02:03:46;;;;;;;;;2.75;2.00;;;;;23.27;53.88;101469.81;5099117;27;45409;-72
2023/08/23 02:06:12;;;;;;;;;2.00;1.25;;;;;23.23;53.74;101462.31;5098537;27;46471;-71
2023/08/23 02:08:37;;;;;;;;;3.00;2.00;;;;;23.21;53.90;101467.91;5098175;27;45387;-70
2023/08/23 02:11:03;;;;;;;;;2.00;2.00;;;;;23.20;53.91;101458.09;5098782;27;45263;-69
2023/08/23 02:13:28;;;;;;;;;2.00;1.00;;;;;23.21;54.28;101453.50;5098815;27;45462;-71
2023/08/23 02:15:53;;;;;;;;;3.00;3.00;;;;;23.16;53.96;101458.75;5097909;27;56447;-69
2023/08/23 02:18:19;;;;;;;;;0.00;0.00;;;;;23.10;54.48;101456.88;5098112;27;45353;-71
2023/08/23 02:20:45;;;;;;;;;3.50;2.50;;;;;22.91;54.67;101426.00;5098383;27;45741;-70
2023/08/23 02:23:10;;;;;;;;;3.00;3.00;;;;;22.98;54.90;101448.53;5098474;27;45195;-69
2023/08/23 02:25:36;;;;;;;;;3.00;3.00;;;;;22.93;55.04;101451.03;5098099;27;45914;-70
2023/08/23 02:28:01;;;;;;;;;3.67;3.00;;;;;22.85;55.32;101440.41;5096908;27;46054;-70
2023/08/23 02:30:26;;;;;;;;;3.67;2.67;;;;;22.74;54.97;101439.94;5098495;27;45232;-71
2023/08/23 02:32:52;;;;;;;;;3.50;3.50;;;;;22.89;55.22;101455.19;5098243;27;45354;-69
2023/08/23 02:35:17;;;;;;;;;3.00;2.75;;;;;22.93;55.12;101453.75;5097988;27;50919;-70
2023/08/23 02:37:42;;;;;;;;;4.67;4.00;;;;;22.90;55.37;101456.88;5097594;27;58238;-70
2023/08/23 02:40:08;;;;;;;;;2.00;2.00;;;;;22.81;55.16;101439.09;5097806;27;57959;-71
2023/08/23 02:42:33;;;;;;;;;3.00;3.00;;;;;22.89;55.37;101444.34;5098270;27;45595;-70
2023/08/23 02:44:58;;;;;;;;;3.33;3.00;;;;;22.83;55.29;101439.78;5097874;27;45545;-69
2023/08/23 02:47:24;;;;;;;;;2.33;2.33;;;;;22.25;55.26;101340.03;5097506;27;48775;-69
2023/08/23 02:49:49;;;;;;;;;3.00;2.00;;;;;22.64;54.75;101407.00;5097889;27;45326;-69
2023/08/23 02:52:14;;;;;;;;;4.00;2.67;;;;;22.91;55.04;101443.09;5098067;27;45306;-71
2023/08/23 02:54:39;;;;;;;;;2.00;2.00;;;;;22.99;55.20;101444.75;5097262;27;54590;-70
2023/08/23 02:57:05;;;;;;;;;2.00;2.00;;;;;22.89;54.91;101428.09;5097261;27;53251;-72
2023/08/23 02:59:30;;;;;;;;;2.00;1.67;;;;;23.00;55.22;101449.13;5097590;27;45197;-69
2023/08/23 03:01:55;;;;;;;;;3.00;3.00;;;;;22.92;54.72;101438.50;5096326;27;45493;-71
2023/08/23 03:04:21;;;;;;;;;3.00;3.00;;;;;22.93;54.97;101454.56;5097449;27;46842;-71
2023/08/23 03:06:46;;;;;;;;;5.00;5.00;;;;;22.97;54.65;101458.53;5097186;27;51273;-70
2023/08/23 03:09:11;;;;;;;;;4.33;4.33;;;;;22.87;55.52;101446.44;5097634;27;45490;-70
2023/08/23 03:11:37;;;;;;;;;7.00;7.00;;;;;22.71;55.44;101455.78;5097885;27;45291;-70
2023/08/23 03:14:02;;;;;;;;;6.00;5.67;;;;;22.65;56.10;101452.03;5097352;27;45765;-71
2023/08/23 03:16:27;;;;;;;;;7.00;5.67;;;;;22.61;55.85;101453.44;5096638;27;61810;-70
2023/08/23 03:18:52;;;;;;;;;4.00;4.00;;;;;22.69;55.55;101455.16;5097615;27;45451;-71
2023/08/23 03:21:18;;;;;;;;;4.00;4.00;;;;;22.64;55.55;101441.38;5099117;27;45233;-71
2023/08/23 03:23:43;;;;;;;;;5.00;5.00;;;;;22.67;55.70;101441.81;5099814;27;46900;-70
2023/08/23 03:26:08;;;;;;;;;4.33;3.00;;;;;22.32;55.84;101396.94;5100581;27;57545;-70
2023/08/23 03:28:33;;;;;;;;;5.00;3.67;;;;;22.64;55.59;101444.94;5100516;27;55072;-70
2023/08/23 03:31:05;;;;;;;;;4.00;3.00;;;;;22.69;55.54;101447.84;5100787;27;47389;-72
2023/08/23 03:33:30;;;;;;;;;1.75;1.75;;;;;22.67;55.62;101432.84;5100934;27;46381;-70
2023/08/23 03:35:56;;;;;;;;;3.33;3.33;;;;;22.69;55.55;101439.72;5100790;27;45462;-70
2023/08/23 03:38:21;;;;;;;;;4.00;2.75;;;;;22.70;55.70;101437.84;5099689;27;45332;-70
2023/08/23 03:40:48;;;;;;;;;1.75;1.75;;;;;22.71;55.64;101432.22;5099796;27;45520;-72
2023/08/23 03:43:14;;;;;;;;;1.50;1.50;;;;;22.72;55.64;101439.31;5100586;27;45935;-70
2023/08/23 03:45:47;;;;;;;;;2.00;2.00;;;;;22.26;55.73;101363.38;5100629;27;45552;-69
2023/08/23 03:48:12;;;;;;;;;4.00;3.00;;;;;22.66;55.84;101431.19;5100800;27;45515;-70
2023/08/23 03:50:38;;;;;;;;;2.67;2.00;;;;;22.67;55.73;101435.56;5101149;27;45526;-70
2023/08/23 03:53:03;;;;;;;;;2.67;2.67;;;;;22.53;55.91;101421.13;5100565;27;46325;-72
2023/08/23 03:55:28;;;;;;;;;1.33;1.00;;;;;22.56;55.95;101426.13;5100892;27;45429;-71
2023/08/23 03:57:54;;;;;;;;;2.50;2.50;;;;;22.51;56.51;101436.78;5099240;27;47497;-70
2023/08/23 04:00:19;;;;;;;;;3.00;3.00;;;;;22.45;56.31;101424.06;5100948;27;45507;-71
2023/08/23 04:02:45;;;;;;;;;2.00;2.00;;;;;22.53;56.28;101440.09;5081443;27;47479;-70
2023/08/23 04:05:11;;;;;;;;;3.33;3.00;;;;;22.32;56.16;101394.22;5100391;27;45307;-70
2023/08/23 04:07:37;;;;;;;;;2.25;1.75;;;;;22.59;55.80;101441.97;5100132;27;45487;-71
2023/08/23 04:10:02;;;;;;;;;3.00;2.00;;;;;22.50;56.00;101436.97;5099287;27;45264;-72
2023/08/23 04:12:29;;;;;;;;;2.67;2.67;;;;;22.46;56.71;101442.81;5100265;27;46228;-72
2023/08/23 04:14:55;;;;;;;;;1.33;1.33;;;;;22.48;56.69;101448.03;5100340;27;45284;-71
2023/08/23 04:17:20;;;;;;;;;2.33;1.67;;;;;22.48;56.32;101453.44;5100579;27;45217;-73
2023/08/23 04:19:45;;;;;;;;;4.00;2.25;;;;;22.50;56.23;101451.38;5100638;27;45562;-73
2023/08/23 04:22:11;;;;;;;;;1.75;1.75;;;;;22.44;56.51;101463.03;5099962;27;45337;-71
2023/08/23 04:24:36;;;;;;;;;3.50;2.75;;;;;22.34;56.63;101447.16;5099969;27;45452;-72
2023/08/23 04:27:01;;;;;;;;;3.00;3.00;;;;;22.36;57.08;101457.78;5099228;27;65806;-71
2023/08/23 04:29:26;;;;;;;;;2.00;2.00;;;;;22.24;57.30;101437.75;5100067;27;49063;-72
2023/08/23 04:31:52;;;;;;;;;2.00;2.00;;;;;22.25;57.10;101444.84;5098871;27;45596;-72
2023/08/23 04:34:17;;;;;;;;;2.00;2.00;;;;;22.26;57.03;101454.63;5098934;27;45444;-71
2023/08/23 04:36:42;;;;;;;;;1.67;1.67;;;;;22.23;57.06;101455.06;5100200;27;45324;-71
2023/08/23 04:39:08;;;;;;;;;3.67;2.33;;;;;22.24;57.56;101454.84;5100273;27;45433;-72
2023/08/23 04:41:33;;;;;;;;;3.00;2.00;;;;;22.20;57.68;101456.25;5099712;27;46574;-71
2023/08/23 04:43:58;;;;;;;;;3.00;3.00;;;;;22.12;57.63;101432.09;5099591;27;45177;-73
2023/08/23 04:46:24;;;;;;;;;2.00;2.00;;;;;22.19;57.90;101448.34;5099915;27;45276;-71
2023/08/23 04:48:49;;;;;;;;;2.00;1.00;;;;;22.20;57.65;101447.31;5100183;27;45437;-72
2023/08/23 04:51:15;;;;;;;;;7.00;4.00;;;;;22.20;57.65;101448.13;5099567;27;46254;-73
2023/08/23 04:53:40;;;;;;;;;3.00;2.50;;;;;22.12;57.86;101443.75;5099403;27;45358;-72
2023/08/23 04:56:05;;;;;;;;;2.50;2.50;;;;;22.16;57.74;101442.31;5099551;27;45459;-72
2023/08/23 04:58:31;;;;;;;;;4.00;3.00;;;;;22.23;57.79;101449.63;5099937;27;45291;-71
2023/08/23 05:01:06;;;;;;;;;3.00;3.00;;;;;22.25;57.65;101442.13;5099500;27;45508;-73
2023/08/23 05:03:32;;;;;;;;;3.67;2.33;;;;;22.23;57.20;101438.81;5099610;27;45353;-70
2023/08/23 05:05:58;;;;;;;;;6.75;3.00;;;;;22.17;57.47;101435.84;5099585;27;45460;-76
2023/08/23 05:08:24;;;;;;;;;1.00;1.00;;;;;22.25;57.25;101442.13;5099899;27;45454;-71
2023/08/23 05:10:53;;;;;;;;;2.00;1.00;;;;;22.29;57.32;101448.81;5098135;27;48231;-71
2023/08/23 05:13:20;;;;;;;;;3.67;2.00;;;;;22.23;57.52;101441.50;5099287;27;45595;-72
2023/08/23 05:15:51;;;;;;;;;3.33;1.33;;;;;22.27;57.76;101457.16;5099428;27;45224;-71
2023/08/23 05:18:16;;;;;;;;;2.50;2.50;;;;;22.24;57.76;101464.84;5099219;27;45326;-71
2023/08/23 05:20:41;;;;;;;;;2.50;2.50;;;;;22.13;58.03;101440.00;5098142;27;72807;-68
2023/08/23 05:23:06;;;;;;;;;2.00;2.00;;;;;22.23;57.85;101457.75;5098467;27;52155;-72
2023/08/23 05:25:32;;;;;;;;;2.00;2.00;;;;;22.23;58.18;101455.88;5099279;27;45359;-70
2023/08/23 05:27:57;;;;;;;;;1.50;1.50;;;;;;;;5099433;27;45352;-70
2023/08/23 05:30:22;;;;;;;;;4.00;4.00;;;;;22.00;57.42;101393.88;5098539;27;45672;-71
2023/08/23 05:32:48;;;;;;;;;3.00;3.00;;;;;22.33;57.42;101450.06;5097315;27;45336;-72
2023/08/23 05:35:13;;;;;;;;;4.67;3.00;;;;;22.26;57.88;101446.50;5097685;27;45209;-71
2023/08/23 05:37:39;;;;;;;;;4.00;2.00;;;;;22.36;57.55;101446.94;5099163;27;45595;-70
2023/08/23 05:40:05;;;;;;;;;2.00;2.00;;;;;22.40;57.34;101456.31;5098840;27;46417;-70
2023/08/23 05:42:31;;;;;;;;;2.00;2.00;;;;;22.45;57.37;101459.28;5098831;27;45250;-70
2023/08/23 05:44:57;;;;;;;;;2.25;2.25;;;;;22.47;57.33;101462.63;5098492;27;45469;-71
2023/08/23 05:47:22;;;;;;;;;2.75;1.25;;;;;22.54;57.00;101463.47;5098673;27;45520;-71
2023/08/23 05:49:47;;;;;;;;;2.00;2.00;;;;;22.61;56.78;101464.28;5098557;27;46583;-72
2023/08/23 05:52:13;;;;;;;;;2.00;2.00;;;;;22.35;56.94;101415.47;5097135;27;45425;-70
2023/08/23 05:54:38;;;;;;;;;1.75;1.75;;;;;22.58;57.04;101448.44;5114350;27;45425;-73
2023/08/23 05:57:05;;;;;;;;;2.00;2.00;;;;;22.44;57.11;101411.56;5098865;27;45546;-72
2023/08/23 05:59:30;;;;;;;;;3.00;2.00;;;;;22.40;56.63;101394.00;5098401;27;45676;-71
2023/08/23 06:01:55;;;;;;;;;1.67;1.67;;;;;22.75;56.54;101432.63;5098078;27;45487;-71
2023/08/23 06:04:20;;;;;;;;;5.00;4.00;;;;;22.60;56.37;101403.00;5097417;27;54399;-71
2023/08/23 06:06:47;;;;;;;;;4.33;2.67;;;;;22.71;56.65;101432.22;5098555;27;45297;-74
2023/08/23 06:09:12;;;;;;;;;3.00;2.00;;;;;22.83;56.11;101447.91;5098291;27;46434;-74
2023/08/23 06:11:37;;;;;;;;;2.67;2.67;;;;;22.93;56.44;101453.75;5098123;27;45711;-73
2023/08/23 06:14:17;;;;;;;;;1.67;1.67;;;;;22.93;56.37;101451.88;5098578;27;45284;-71
2023/08/23 06:16:43;;;;;;;;;3.00;3.00;;;;;22.92;56.48;101457.50;5098348;27;45318;-70
2023/08/23 06:19:08;;;;;;;;;2.00;2.00;;;;;22.97;56.51;101457.69;5097401;27;51479;-73
2023/08/23 06:21:33;;;;;;;;;3.67;3.67;;;;;22.93;55.99;101437.47;5099007;27;45576;-74
2023/08/23 06:24:00;;;;;;;;;5.00;3.75;;;;;23.01;56.10;101446.22;5112213;27;45290;-74
2023/08/23 06:26:25;;;;;;;;;2.50;2.50;;;;;23.08;55.54;101448.94;5097994;27;45511;-71
2023/08/23 06:28:50;;;;;;;;;2.67;2.67;;;;;22.90;55.75;101397.22;5097687;27;45522;-73
2023/08/23 06:31:19;;;;;;;;;3.00;3.00;;;;;23.26;55.35;101457.28;5098271;27;45491;-71
2023/08/23 06:33:45;;;;;;;;;4.00;3.00;;;;;23.40;55.27;101449.09;5097020;27;45401;-71
2023/08/23 06:36:10;;;;;;;;;5.00;5.00;;;;;23.54;54.33;101431.75;5097850;27;45635;-70
2023/08/23 06:38:35;;;;;;;;;1.33;1.00;;;;;24.00;53.88;101442.50;5097003;27;61568;-72
2023/08/23 06:41:01;;;;;;;;;2.00;2.00;;;;;24.39;52.91;101446.91;5097567;27;45411;-71
2023/08/23 06:43:26;;;;;;;;;3.75;3.75;;;;;24.73;51.72;101442.94;5097455;27;45373;-72
2023/08/23 06:45:51;;;;;;;;;2.33;2.33;;;;;25.09;51.10;101458.59;5100263;27;45390;-72
2023/08/23 06:48:17;;;;;;;;;5.00;3.00;;;;;25.30;50.21;101446.47;5098673;27;46472;-73
2023/08/23 06:50:42;;;;;;;;;3.00;2.75;;;;;25.38;49.31;101389.00;5097738;27;45525;-74
2023/08/23 06:53:08;;;;;;;;;5.00;3.33;;;;;25.85;48.98;101407.56;5097450;27;45348;-71
2023/08/23 06:55:39;;;;;;;;;4.50;3.25;;;;;26.42;47.59;101446.22;5098740;27;45474;-70
2023/08/23 06:58:04;;;;;;;;;3.00;3.00;;;;;26.54;46.68;101428.84;5117167;27;46002;-69
2023/08/23 07:00:30;;;;;;;;;2.75;2.75;;;;;26.87;46.73;101444.72;5116002;27;45547;-71
2023/08/23 07:02:56;;;;;;;;;4.00;4.00;;;;;27.00;45.48;101443.66;5117622;27;45436;-71
2023/08/23 07:05:21;;;;;;;;;2.50;2.00;;;;;27.24;45.69;101452.72;5117901;27;45452;-70
2023/08/23 07:07:47;;;;;;;;;6.50;4.50;;;;;27.44;44.68;101472.31;5106861;27;51148;-71
2023/08/23 07:10:12;;;;;;;;;2.25;2.25;;;;;27.36;45.02;101434.41;5107014;27;45464;-71
2023/08/23 07:12:37;;;;;;;;;4.75;3.25;;;;;27.91;44.03;101469.53;5096644;27;46112;-69
2023/08/23 07:15:03;;;;;;;;;3.00;3.00;;;;;28.19;43.50;101453.16;5097525;27;45395;-71
2023/08/23 07:17:29;;;;;;;;;5.50;4.75;;;;;28.50;43.18;101470.19;5096812;27;46199;-70
2023/08/23 07:19:55;;;;;;;;;4.25;4.00;;;;;28.69;42.73;101471.63;5095157;27;45506;-72
2023/08/23 07:22:20;;;;;;;;;3.50;3.50;;;;;28.73;41.36;101437.22;5087314;27;45390;-70
2023/08/23 07:24:46;;;;;;;;;4.00;4.00;;;;;29.01;41.91;101457.41;5087758;27;45474;-71
2023/08/23 07:27:11;;;;;;;;;3.00;3.00;;;;;29.14;41.32;101468.03;5078892;27;46237;-71
2023/08/23 07:29:37;;;;;;;;;3.67;3.67;;;;;28.99;41.19;101462.31;5087750;27;45464;-75
2023/08/23 07:32:04;;;;;;;;;6.00;4.00;;;;;28.67;41.16;101437.38;5095461;27;45528;-72
2023/08/23 07:34:29;;;;;;;;;5.00;5.00;;;;;28.95;42.03;101472.91;5096843;27;45585;-72
2023/08/23 07:36:54;;;;;;;;;6.00;6.00;;;;;29.04;41.06;101465.13;5095461;27;47502;-71
2023/08/23 07:39:20;;;;;;;;;3.00;3.00;;;;;28.90;40.97;101459.16;5101151;27;45197;-70
2023/08/23 07:41:45;;;;;;;;;5.00;5.00;;;;;29.00;41.15;101480.38;5095365;27;45329;-70
2023/08/23 07:44:11;;;;;;;;;5.00;5.00;;;;;29.02;41.30;101470.84;5096601;27;45431;-77
2023/08/23 07:46:36;;;;;;;;;4.00;4.00;;;;;29.24;41.25;101464.63;5096139;27;46242;-70
2023/08/23 07:49:01;;;;;;;;;4.00;2.67;;;;;29.24;40.79;101459.97;5095937;27;46531;-69
2023/08/23 07:51:27;;;;;;;;;9.00;4.00;;;;;29.38;40.65;101465.91;5095228;27;45872;-70
2023/08/23 07:53:53;;;;;;;;;5.00;4.00;;;;;29.52;40.03;101450.81;5116965;27;45488;-71
2023/08/23 07:56:18;;;;;;;;;6.00;4.33;;;;;29.70;39.84;101473.53;5112184;27;47769;-70
2023/08/23 07:58:44;;;;;;;;;5.67;5.00;;;;;29.66;39.86;101473.22;5114810;27;45418;-71
2023/08/23 08:01:09;;;;;;;;;5.00;5.00;;;;;29.68;40.26;101476.53;5108163;27;45704;-71
2023/08/23 08:03:34;;;;;;;;;5.00;4.00;;;;;29.66;39.51;101481.44;5095594;27;45326;-70
2023/08/23 08:06:00;;;;;;;;;4.00;4.00;;;;;29.30;40.58;101442.53;5106793;27;64919;-71
2023/08/23 08:08:25;;;;;;;;;3.00;3.00;;;;;29.71;40.29;101480.69;5101274;27;45314;-70
2023/08/23 08:10:51;;;;;;;;;6.00;4.00;;;;;29.87;39.32;101475.16;5099691;27;45350;-71
2023/08/23 08:13:17;;;;;;;;;4.00;4.00;;;;;30.15;39.23;101467.81;5115526;27;45489;-70
2023/08/23 08:15:42;;;;;;;;;4.75;4.75;;;;;30.43;39.14;101473.06;5100415;27;46024;-70
2023/08/23 08:18:08;;;;;;;;;3.00;2.75;;;;;30.67;38.43;101461.81;5098995;27;45408;-70
2023/08/23 08:20:33;;;;;;;;;4.00;4.00;;;;;30.88;38.08;101459.00;5115722;27;45526;-71
2023/08/23 08:22:59;;;;;;;;;4.00;4.00;;;;;31.06;37.53;101457.75;5115774;27;45563;-70
2023/08/23 08:25:25;;;;;;;;;4.67;4.33;;;;;30.98;37.27;101458.22;5098720;27;46595;-70
2023/08/23 08:27:51;;;;;;;;;2.67;2.67;;;;;30.96;37.92;101446.69;5099603;27;45516;-71
2023/08/23 08:30:16;;;;;;;;;5.00;4.00;;;;;31.15;37.20;101474.56;5099743;27;45424;-69
2023/08/23 08:32:42;;;;;;;;;4.00;4.00;;;;;31.05;37.63;101463.53;5099149;27;45438;-69
2023/08/23 08:35:07;;;;;;;;;4.67;4.67;;;;;30.82;37.19;101407.03;5095889;27;47969;-70
2023/08/23 08:37:33;;;;;;;;;4.00;3.00;;;;;31.18;37.08;101463.06;5094619;27;45370;-70
2023/08/23 08:39:58;;;;;;;;;3.00;3.00;;;;;31.15;37.68;101464.41;5090664;27;55620;-70
2023/08/23 08:42:23;;;;;;;;;4.00;3.67;;;;;31.13;37.34;101461.09;5098147;27;50216;-69
2023/08/23 08:44:49;;;;;;;;;3.00;3.00;;;;;31.13;37.37;101476.75;5098210;27;48468;-71
2023/08/23 08:47:14;;;;;;;;;4.67;4.67;;;;;31.02;37.58;101475.81;5110068;27;45372;-70
2023/08/23 08:49:40;;;;;;;;;4.33;4.33;;;;;30.93;37.85;101476.59;5096300;27;45337;-71
2023/08/23 08:52:07;;;;;;;;;3.00;3.00;;;;;30.71;37.84;101446.47;5099212;27;45361;-71
2023/08/23 08:54:33;;;;;;;;;4.33;4.33;;;;;30.84;37.75;101484.50;5098777;27;45967;-71
2023/08/23 08:57:00;;;;;;;;;4.33;4.33;;;;;30.50;38.08;101435.28;5097837;27;45406;-71
2023/08/23 08:59:26;;;;;;;;;5.00;5.00;;;;;30.70;38.12;101491.50;5100847;27;45404;-70
2023/08/23 09:01:54;;;;;;;;;5.00;4.00;;;;;30.63;38.54;101488.09;5098567;27;45540;-69
2023/08/23 09:04:19;;;;;;;;;5.33;3.33;;;;;30.47;38.52;101481.63;5102758;27;45748;-71
2023/08/23 09:06:45;;;;;;;;;5.00;5.00;;;;;30.34;38.75;101471.88;5099610;27;45472;-77
2023/08/23 09:09:12;;;;;;;;;6.67;5.00;;;;;30.40;38.73;101479.06;5103633;27;45466;-70
2023/08/23 09:11:37;;;;;;;;;3.67;3.67;;;;;30.47;39.21;101479.72;5098799;27;45255;-71
2023/08/23 09:14:16;;;;;;;;;3.67;3.67;;;;;30.57;38.80;101489.94;5097751;27;45388;-71
2023/08/23 09:16:43;;;;;;;;;3.33;3.33;;;;;30.43;38.50;101478.53;5098068;27;45369;-70
2023/08/23 09:19:11;;;;;;;;;4.67;4.00;;;;;30.35;38.97;101475.44;5099034;27;45301;-71
2023/08/23 09:21:44;;;;;;;;;3.67;3.67;;;;;30.40;39.21;101484.56;5112702;27;45559;-69
2023/08/23 09:24:10;;;;;;;;;7.33;5.67;;;;;30.53;39.01;101473.19;5098181;27;45875;-69
2023/08/23 09:26:36;;;;;;;;;4.00;4.00;;;;;30.80;38.53;101469.59;5098264;27;45578;-69
2023/08/23 09:29:02;;;;;;;;;5.67;5.67;;;;;31.10;37.79;101478.13;5098048;27;45634;-74
2023/08/23 09:31:28;;;;;;;;;3.33;3.33;;;;;31.37;37.36;101467.06;5098478;27;45512;-69
2023/08/23 09:33:53;;;;;;;;;8.33;7.33;;;;;31.51;37.31;101436.38;5098993;27;60800;-71
2023/08/23 09:36:40;;;;;;;;;5.00;5.00;;;;;31.93;35.92;101453.63;5089192;27;45573;-69
2023/08/23 09:39:11;;;;;;;;;5.00;5.00;;;;;32.30;36.01;101478.28;5091499;27;45244;-71
2023/08/23 09:41:41;;;;;;;;;5.67;4.33;;;;;32.43;35.78;101470.56;5102905;27;45444;-72
2023/08/23 09:44:07;;;;;;;;;3.67;3.00;;;;;32.35;35.36;101471.94;5096123;27;48604;-70
2023/08/23 09:46:39;;;;;;;;;4.00;4.00;;;;;31.93;36.00;101420.63;5099172;27;46081;-69
2023/08/23 09:49:05;;;;;;;;;4.33;3.67;;;;;32.28;35.70;101474.13;5089038;27;45531;-70
2023/08/23 09:51:35;;;;;;;;;4.00;4.00;;;;;32.28;35.47;101474.97;5096346;27;45454;-69
2023/08/23 09:54:11;;;;;;;;;5.00;5.00;;;;;32.17;36.30;101481.50;5104165;27;45826;-68
2023/08/23 09:56:37;;;;;;;;;4.00;4.00;;;;;32.10;35.98;101450.66;5089460;27;45453;-70
2023/08/23 09:59:03;;;;;;;;;6.33;6.33;;;;;32.18;35.72;101450.13;5076326;27;45473;-69
2023/08/23 10:01:28;;;;;;;;;4.33;4.33;;;;;32.29;35.53;101446.34;5108550;27;45301;-70
2023/08/23 10:03:54;;;;;;;;;4.00;4.00;;;;;32.53;35.03;101468.69;5093953;27;46555;-69
2023/08/23 10:06:21;;;;;;;;;5.67;4.00;;;;;32.62;34.95;101452.44;5094265;27;45181;-70
2023/08/23 10:08:46;;;;;;;;;7.00;6.00;;;;;32.53;34.72;101423.81;5095885;27;45459;-68
2023/08/23 10:11:13;;;;;;;;;5.00;4.00;;;;;32.73;34.60;101434.81;5091568;27;45468;-70
2023/08/23 10:13:39;;;;;;;;;4.00;4.00;;;;;32.79;34.30;101443.91;5097052;27;46076;-69
2023/08/23 10:16:06;;;;;;;;;5.00;4.00;;;;;32.73;34.56;101447.78;5094334;27;45438;-70
2023/08/23 10:18:34;;;;;;;;;3.00;3.00;;;;;32.35;34.69;101417.72;5092420;27;45306;-69
2023/08/23 10:21:02;;;;;;;;;3.33;3.33;;;;;32.27;35.31;101396.25;5090135;27;45284;-71
2023/08/23 10:23:29;;;;;;;;;6.00;6.00;;;;;32.33;34.94;101413.59;5095296;27;45819;-70
2023/08/23 10:25:54;;;;;;;;;3.33;3.33;;;;;32.28;35.97;101428.19;5097526;27;45503;-70
2023/08/23 10:28:19;;;;;;;;;6.00;6.00;;;;;32.32;35.69;101434.78;5104479;27;45336;-70
2023/08/23 10:31:00;;;;;;;;;5.00;5.00;;;;;32.20;36.09;101431.41;5120969;27;45484;-69
2023/08/23 10:33:25;;;;;;;;;3.67;3.67;;;;;31.95;36.11;101428.59;5087434;27;45700;-70
2023/08/23 10:35:50;;;;;;;;;6.00;5.00;;;;;31.54;36.37;101392.69;5092161;27;45443;-70
2023/08/23 10:38:16;;;;;;;;;6.33;6.00;;;;;31.47;36.96;101406.66;5094361;27;45568;-70
2023/08/23 10:40:47;;;;;;;;;6.33;6.33;;;;;31.28;37.61;101413.72;5095969;27;45409;-70
2023/08/23 10:43:14;;;;;;;;;5.67;5.67;;;;;31.09;37.64;101398.72;5097159;27;45729;-69
2023/08/23 10:46:02;;;;;;;;;5.67;4.67;;;;;31.18;37.21;101430.94;5102293;27;45405;-69
2023/08/23 10:48:28;;;;;;;;;5.67;5.00;;;;;31.10;37.87;101423.19;5096734;27;45335;-71
2023/08/23 10:50:54;;;;;;;;;6.00;4.33;;;;;31.09;38.12;101432.50;5108872;27;45463;-70
2023/08/23 10:53:20;;;;;;;;;10.00;9.33;;;;;31.03;38.21;101427.22;5106679;27;46543;-69
2023/08/23 10:55:47;;;;;;;;;7.00;6.00;;;;;30.94;38.12;101428.81;5096883;27;45431;-69
2023/08/23 10:58:13;;;;;;;;;7.67;7.67;;;;;30.93;38.42;101411.50;5106755;27;45599;-69
2023/08/23 11:00:44;;;;;;;;;7.00;5.33;;;;;30.95;38.83;101428.56;5083273;27;45470;-70
2023/08/23 11:03:13;;;;;;;;;5.67;4.67;;;;;30.09;38.73;101287.88;5084317;27;45897;-70
2023/08/23 11:05:38;;;;;;;;;4.67;4.67;;;;;30.94;38.11;101429.66;5090940;27;45211;-70
2023/08/23 11:08:05;;;;;;;;;6.67;5.33;;;;;30.84;38.97;101432.31;5106171;27;45380;-69
2023/08/23 11:10:31;;;;;;;;;7.33;6.00;;;;;30.74;38.91;101424.00;5085941;27;45363;-69
2023/08/23 11:12:56;;;;;;;;;4.00;4.00;;;;;30.79;39.13;101426.78;5056359;27;45574;-70
2023/08/23 11:15:22;;;;;;;;;4.00;4.00;;;;;30.83;39.13;101417.75;5065226;28;45331;-70
2023/08/23 11:17:48;;;;;;;;;6.00;6.00;;;;;30.86;38.98;101413.66;5055560;28;45371;-70
2023/08/23 11:20:13;;;;;;;;;9.00;5.67;;;;;30.65;38.67;101370.69;5056537;28;45470;-69
2023/08/23 11:22:39;;;;;;;;;6.33;4.33;;;;;30.82;39.02;101407.03;5055966;28;46560;-71